createdAt,value
2019-01-04T00:01:23.702Z,3.02
2019-01-04T00:03:53.948Z,3.00
2019-01-04T00:06:24.065Z,2.95
2019-01-04T00:08:54.578Z,3.02
2019-01-04T00:11:24.678Z,3.01
2019-01-04T00:13:55.327Z,2.99
2019-01-04T00:16:25.428Z,3.05
2019-01-04T00:18:55.575Z,2.99
2019-01-04T00:21:25.661Z,3.04
2019-01-04T00:23:56.108Z,2.98
2019-01-04T00:26:26.328Z,2.99
2019-01-04T00:28:56.729Z,2.92
2019-01-04T00:31:26.827Z,2.84
2019-01-04T00:33:57.300Z,2.77
2019-01-04T00:36:27.397Z,2.80
2019-01-04T00:38:57.862Z,2.74
2019-01-04T00:41:27.965Z,2.72
2019-01-04T00:43:58.394Z,2.69
2019-01-04T00:46:28.553Z,2.62
2019-01-04T00:48:59.421Z,2.62
2019-01-04T00:51:29.527Z,2.49
2019-01-04T00:53:59.993Z,2.57
2019-01-04T00:57:01.834Z,2.63
2019-01-04T01:00:08.456Z,2.69
2019-01-04T01:03:18.261Z,2.81
2019-01-04T01:06:32.244Z,2.91
2019-01-04T01:09:43.358Z,2.96
2019-01-04T01:13:04.637Z,3.07
2019-01-04T01:16:06.188Z,3.13
2019-01-04T01:19:21.251Z,3.04
2019-01-04T01:22:16.105Z,2.99
2019-01-04T01:25:35.273Z,3.04
2019-01-04T01:28:41.090Z,3.07
2019-01-04T01:31:53.976Z,3.07
2019-01-04T01:35:03.329Z,3.08
2019-01-04T01:38:16.216Z,3.07
2019-01-04T01:41:35.470Z,2.99
2019-01-04T01:44:37.781Z,2.90
2019-01-04T01:47:36.979Z,2.85
2019-01-04T01:50:45.445Z,2.76
2019-01-04T01:53:15.539Z,2.67
2019-01-04T01:55:46.286Z,2.66
2019-01-04T01:58:16.395Z,2.70
2019-01-04T02:00:46.931Z,2.71
2019-01-04T02:03:17.400Z,2.74
2019-01-04T02:05:47.891Z,2.77
2019-01-04T02:08:17.999Z,2.79
2019-01-04T02:10:48.640Z,2.82
2019-01-04T02:13:18.568Z,2.72
2019-01-04T02:15:50.165Z,2.83
2019-01-04T02:18:20.286Z,2.83
2019-01-04T02:20:50.749Z,2.83
2019-01-04T02:23:20.844Z,2.76
2019-01-04T02:25:51.301Z,2.64
2019-01-04T02:28:21.416Z,2.80
2019-01-04T02:30:51.562Z,2.89
2019-01-04T02:33:21.738Z,2.92
2019-01-04T02:35:52.144Z,2.92
2019-01-04T02:38:22.265Z,2.96
2019-01-04T02:40:52.518Z,3.00
2019-01-04T02:43:22.648Z,2.90
2019-01-04T02:45:52.783Z,2.69
2019-01-04T02:48:24.510Z,2.71
2019-01-04T02:50:54.915Z,2.90
2019-01-04T02:53:25.046Z,2.96
2019-01-04T02:55:55.208Z,2.99
2019-01-04T02:58:25.329Z,3.08
2019-01-04T03:00:55.540Z,3.14
2019-01-04T03:03:25.642Z,3.27
2019-01-04T03:05:55.797Z,3.34
2019-01-04T03:08:25.927Z,3.38
2019-01-04T03:10:57.218Z,3.33
2019-01-04T03:13:27.320Z,3.34
2019-01-04T03:15:58.595Z,3.39
2019-01-04T03:18:29.679Z,3.39
2019-01-04T03:20:59.828Z,3.38
2019-01-04T03:23:29.949Z,3.36
2019-01-04T03:26:00.415Z,3.49
2019-01-04T03:28:30.506Z,3.59
2019-01-04T03:31:00.955Z,3.59
2019-01-04T03:33:31.061Z,3.59
2019-01-04T03:36:01.516Z,3.60
2019-01-04T03:38:31.969Z,3.61
2019-01-04T03:41:02.331Z,3.58
2019-01-04T03:43:32.449Z,3.56
2019-01-04T03:46:02.575Z,3.55
2019-01-04T03:48:32.681Z,3.53
2019-01-04T03:51:03.246Z,3.52
2019-01-04T03:53:33.504Z,3.50
2019-01-04T03:56:03.635Z,3.49
2019-01-04T03:58:33.754Z,3.45
2019-01-04T04:01:05.773Z,3.46
2019-01-04T04:03:35.901Z,3.36
2019-01-04T04:06:07.401Z,3.35
2019-01-04T04:08:37.531Z,3.33
2019-01-04T04:11:07.868Z,3.24
2019-01-04T04:13:37.949Z,3.31
2019-01-04T04:16:08.081Z,3.30
2019-01-04T04:18:38.189Z,3.32
2019-01-04T04:21:08.660Z,3.32
2019-01-04T04:23:38.855Z,3.17
2019-01-04T04:26:09.306Z,3.13
2019-01-04T04:28:39.420Z,3.20
2019-01-04T04:31:09.989Z,3.14
2019-01-04T04:33:40.090Z,3.17
2019-01-04T04:36:10.233Z,3.17
2019-01-04T04:38:40.331Z,3.27
2019-01-04T04:41:10.866Z,3.27
2019-01-04T04:43:40.977Z,3.27
2019-01-04T04:46:11.249Z,3.19
2019-01-04T04:48:41.363Z,3.28
2019-01-04T04:51:11.489Z,3.28
2019-01-04T04:53:41.587Z,3.33
2019-01-04T04:56:12.601Z,3.40
2019-01-04T04:58:42.728Z,3.37
2019-01-04T05:01:13.257Z,3.41
2019-01-04T05:03:43.363Z,3.46
2019-01-04T05:06:13.515Z,3.36
2019-01-04T05:08:43.621Z,3.39
2019-01-04T05:11:14.240Z,3.52
2019-01-04T05:13:44.365Z,3.57
2019-01-04T05:16:14.869Z,3.57
2019-01-04T05:18:45.021Z,3.59
2019-01-04T05:21:15.519Z,3.62
2019-01-04T05:23:45.668Z,3.67
2019-01-04T05:26:17.259Z,3.71
2019-01-04T05:28:47.371Z,3.79
2019-01-04T05:31:17.832Z,3.80
2019-01-04T05:33:47.929Z,3.84
2019-01-04T05:36:19.614Z,3.83
2019-01-04T05:38:49.727Z,3.85
2019-01-04T05:41:20.472Z,3.90
2019-01-04T05:43:50.969Z,3.94
2019-01-04T05:46:21.164Z,3.98
2019-01-04T05:48:51.288Z,4.00
2019-01-04T05:51:21.409Z,3.99
2019-01-04T05:53:51.512Z,3.49
2019-01-04T05:56:21.988Z,3.87
2019-01-04T05:58:52.096Z,3.88
2019-01-04T06:01:23.845Z,3.93
2019-01-04T06:03:53.945Z,3.97
2019-01-04T06:06:24.414Z,3.98
2019-01-04T06:08:54.517Z,4.00
2019-01-04T06:11:25.282Z,3.99
2019-01-04T06:13:55.389Z,3.99
2019-01-04T06:16:25.548Z,3.96
2019-01-04T06:18:55.643Z,3.94
2019-01-04T06:21:25.789Z,3.93
2019-01-04T06:23:55.909Z,3.87
2019-01-04T06:26:26.394Z,3.84
2019-01-04T06:28:56.595Z,3.81
2019-01-04T06:31:27.044Z,3.79
2019-01-04T06:33:57.180Z,3.71
2019-01-04T06:36:27.385Z,3.74
2019-01-04T06:38:57.510Z,3.70
2019-01-04T06:41:28.577Z,3.70
2019-01-04T06:43:58.733Z,3.74
2019-01-04T06:46:28.860Z,3.70
2019-01-04T06:48:58.978Z,3.55
2019-01-04T06:51:29.114Z,3.46
2019-01-04T06:53:59.220Z,3.38
2019-01-04T06:56:29.354Z,3.37
2019-01-04T06:59:00.476Z,3.52
2019-01-04T07:01:31.438Z,3.38
2019-01-04T07:04:01.549Z,3.45
2019-01-04T07:06:32.022Z,3.09
2019-01-04T07:09:02.197Z,3.27
2019-01-04T07:11:32.733Z,3.35
2019-01-04T07:14:02.845Z,3.52
2019-01-04T07:16:33.333Z,3.58
2019-01-04T07:19:03.448Z,3.62
2019-01-04T07:21:33.927Z,3.76
2019-01-04T07:24:04.113Z,3.77
2019-01-04T07:26:34.252Z,3.83
2019-01-04T07:29:04.357Z,3.95
2019-01-04T07:31:34.498Z,4.00
2019-01-04T07:34:04.620Z,4.09
2019-01-04T07:36:34.748Z,4.19
2019-01-04T07:39:07.140Z,4.20
2019-01-04T07:41:37.266Z,4.27
2019-01-04T07:44:07.392Z,4.27
2019-01-04T07:46:37.514Z,4.35
2019-01-04T07:49:07.645Z,4.35
2019-01-04T07:51:37.772Z,4.37
2019-01-04T07:54:07.892Z,4.41
2019-01-04T07:56:38.013Z,4.39
2019-01-04T07:59:08.125Z,4.44
2019-01-04T08:01:38.315Z,4.39
2019-01-04T08:04:08.430Z,4.45
2019-01-04T08:06:38.904Z,4.48
2019-01-04T08:09:09.338Z,4.37
2019-01-04T08:11:39.798Z,4.43
2019-01-04T08:14:09.909Z,4.42
2019-01-04T08:16:40.061Z,4.47
2019-01-04T08:19:10.170Z,4.49
2019-01-04T08:21:40.690Z,4.48
2019-01-04T08:24:10.790Z,4.55
2019-01-04T08:26:40.921Z,4.54
2019-01-04T08:29:11.027Z,4.59
2019-01-04T08:31:41.505Z,4.62
2019-01-04T08:34:11.615Z,4.61
2019-01-04T08:36:41.740Z,4.60
2019-01-04T08:39:11.936Z,4.62
2019-01-04T08:41:42.469Z,4.63
2019-01-04T08:44:12.638Z,4.64
2019-01-04T08:46:44.942Z,4.62
2019-01-04T08:49:15.050Z,4.62
2019-01-04T08:51:45.237Z,4.64
2019-01-04T08:54:15.341Z,4.66
2019-01-04T08:56:45.474Z,4.58
2019-01-04T08:59:15.728Z,4.55
2019-01-04T09:01:46.278Z,4.63
2019-01-04T09:04:16.785Z,4.66
2019-01-04T09:06:46.971Z,4.66
2019-01-04T09:09:17.115Z,4.68
2019-01-04T09:11:47.670Z,4.70
2019-01-04T09:14:17.842Z,4.72
2019-01-04T09:16:48.320Z,4.80
2019-01-04T09:19:18.420Z,4.86
2019-01-04T09:21:48.677Z,4.85
2019-01-04T09:24:18.770Z,4.87
2019-01-04T09:26:48.904Z,4.91
2019-01-04T09:29:19.044Z,4.98
2019-01-04T09:31:49.171Z,5.03
2019-01-04T09:34:19.370Z,5.07
2019-01-04T09:36:49.527Z,5.09
2019-01-04T09:39:19.869Z,5.16
2019-01-04T09:42:04.786Z,5.17
2019-01-04T09:44:34.975Z,5.16
2019-01-04T09:47:05.143Z,5.19
2019-01-04T09:49:35.246Z,5.25
2019-01-04T09:52:05.410Z,5.29
2019-01-04T09:54:38.466Z,5.23
2019-01-04T09:57:08.982Z,5.23
2019-01-04T09:59:40.401Z,5.21
2019-01-04T10:02:10.641Z,5.17
2019-01-04T10:04:40.835Z,5.16
2019-01-04T10:07:11.083Z,5.11
2019-01-04T10:09:41.180Z,5.09
2019-01-04T10:12:11.317Z,5.02
2019-01-04T10:14:42.382Z,5.01
2019-01-04T10:17:12.893Z,5.00
2019-01-04T10:19:42.990Z,4.92
2019-01-04T10:22:13.229Z,4.91
2019-01-04T10:24:43.486Z,4.78
2019-01-04T10:27:13.893Z,4.83
2019-01-04T10:29:44.028Z,4.90
2019-01-04T10:32:14.255Z,4.87
2019-01-04T10:34:44.365Z,4.88
2019-01-04T10:37:14.497Z,4.93
2019-01-04T10:39:44.719Z,4.94
2019-01-04T10:42:15.417Z,5.02
2019-01-04T10:44:46.433Z,5.07
2019-01-04T10:47:16.637Z,5.13
2019-01-04T10:49:47.453Z,5.09
2019-01-04T10:52:17.569Z,5.12
2019-01-04T10:54:47.672Z,5.04
2019-01-04T10:57:17.812Z,5.08
2019-01-04T10:59:48.719Z,5.05
2019-01-04T11:02:19.994Z,5.05
2019-01-04T11:04:50.100Z,5.01
2019-01-04T11:07:20.245Z,5.03
2019-01-04T11:09:50.347Z,5.12
2019-01-04T11:12:20.483Z,4.61
2019-01-04T11:14:50.589Z,5.12
2019-01-04T11:17:20.716Z,5.13
2019-01-04T11:19:50.828Z,5.12
2019-01-04T11:22:51.997Z,5.16
2019-01-04T11:25:51.587Z,5.10
2019-01-04T11:29:18.288Z,5.09
2019-01-04T11:32:04.684Z,5.04
2019-01-04T11:35:12.176Z,5.10
2019-01-04T11:38:23.857Z,5.12
2019-01-04T11:41:31.484Z,5.09
2019-01-04T11:44:38.708Z,5.13
2019-01-04T11:47:33.927Z,5.13
2019-01-04T11:50:40.908Z,5.17
2019-01-04T11:53:15.840Z,5.28
2019-01-04T11:55:45.946Z,4.09
2019-01-04T11:58:16.107Z,5.33
2019-01-04T12:00:46.219Z,5.37
2019-01-04T12:03:16.467Z,5.45
2019-01-04T12:05:46.587Z,5.51
2019-01-04T12:08:16.715Z,5.55
2019-01-04T12:10:46.822Z,5.54
2019-01-04T12:13:16.968Z,5.54
2019-01-04T12:15:47.676Z,5.55
2019-01-04T12:18:18.768Z,5.56
2019-01-04T12:20:48.875Z,5.55
2019-01-04T12:23:19.071Z,5.53
2019-01-04T12:25:49.193Z,5.54
2019-01-04T12:28:19.314Z,5.45
2019-01-04T12:30:49.441Z,5.46
2019-01-04T12:33:19.549Z,5.43
2019-01-04T12:35:49.648Z,5.43
2019-01-04T12:38:19.789Z,5.44
2019-01-04T12:40:49.963Z,5.45
2019-01-04T12:43:20.064Z,5.44
2019-01-04T12:45:51.262Z,5.44
2019-01-04T12:48:21.373Z,5.45
2019-01-04T12:50:51.486Z,5.44
2019-01-04T12:53:21.621Z,5.43
2019-01-04T12:55:51.726Z,5.43
2019-01-04T12:58:21.873Z,5.42
2019-01-04T13:00:51.978Z,5.43
2019-01-04T13:03:22.156Z,5.43
2019-01-04T13:05:52.271Z,5.43
2019-01-04T13:08:22.745Z,5.41
2019-01-04T13:10:52.853Z,5.39
2019-01-04T13:13:23.589Z,5.40
2019-01-04T13:15:53.772Z,5.40
2019-01-04T13:18:23.902Z,5.38
2019-01-04T13:20:54.073Z,5.35
2019-01-04T13:23:24.201Z,5.34
2019-01-04T13:25:54.307Z,5.32
2019-01-04T13:28:24.716Z,5.30
2019-01-04T13:30:55.798Z,5.30
2019-01-04T13:33:25.923Z,5.30
2019-01-04T13:35:56.456Z,5.30
2019-01-04T13:38:26.586Z,5.28
2019-01-04T13:40:56.702Z,5.27
2019-01-04T13:43:26.805Z,5.25
2019-01-04T13:45:56.939Z,5.25
2019-01-04T13:48:27.080Z,5.25
2019-01-04T13:50:57.221Z,5.25
2019-01-04T13:53:27.343Z,5.28
2019-01-04T13:55:57.474Z,5.34
2019-01-04T13:58:27.658Z,5.37
2019-01-04T14:00:57.797Z,5.44
2019-01-04T14:03:28.328Z,5.44
2019-01-04T14:05:58.460Z,5.42
2019-01-04T14:08:28.571Z,5.46
2019-01-04T14:10:58.790Z,5.47
2019-01-04T14:13:28.898Z,5.51
2019-01-04T14:15:59.046Z,5.49
2019-01-04T14:18:29.168Z,5.42
2019-01-04T14:20:59.283Z,5.38
2019-01-04T14:23:30.076Z,5.35
2019-01-04T14:26:00.205Z,5.33
2019-01-04T14:28:30.318Z,5.36
2019-01-04T14:31:00.453Z,5.29
2019-01-04T14:33:30.561Z,5.32
2019-01-04T14:36:00.736Z,5.38
2019-01-04T14:38:30.783Z,5.35
2019-01-04T14:41:00.906Z,5.32
2019-01-04T14:43:31.019Z,5.24
2019-01-04T14:46:01.252Z,5.27
2019-01-04T14:48:31.373Z,5.27
2019-01-04T14:51:01.492Z,5.15
2019-01-04T14:53:31.605Z,5.11
2019-01-04T14:56:02.338Z,5.08
2019-01-04T14:58:32.441Z,5.09
2019-01-04T15:01:04.247Z,5.07
2019-01-04T15:03:34.405Z,5.09
2019-01-04T15:06:04.566Z,5.00
2019-01-04T15:08:34.681Z,5.02
2019-01-04T15:11:05.236Z,5.07
2019-01-04T15:13:36.732Z,4.94
2019-01-04T15:16:06.843Z,4.98
2019-01-04T15:18:36.973Z,5.04
2019-01-04T15:21:07.093Z,5.01
2019-01-04T15:23:37.201Z,4.98
2019-01-04T15:26:07.330Z,4.98
2019-01-04T15:28:37.432Z,4.97
2019-01-04T15:31:07.564Z,4.89
2019-01-04T15:33:37.671Z,4.89
2019-01-04T15:36:07.788Z,4.88
2019-01-04T15:38:37.896Z,4.92
2019-01-04T15:41:08.032Z,5.01
2019-01-04T15:43:38.173Z,5.01
2019-01-04T15:46:08.306Z,4.96
2019-01-04T15:48:38.466Z,4.98
2019-01-04T15:51:08.580Z,4.98
2019-01-04T15:53:38.712Z,4.97
2019-01-04T15:56:08.868Z,4.98
2019-01-04T15:58:38.975Z,4.99
2019-01-04T16:01:09.104Z,4.96
2019-01-04T16:03:39.320Z,4.92
2019-01-04T16:06:09.594Z,4.90
2019-01-04T16:08:39.765Z,4.88
2019-01-04T16:11:09.934Z,4.95
2019-01-04T16:13:40.136Z,4.94
2019-01-04T16:16:10.691Z,4.99
2019-01-04T16:18:40.812Z,4.97
2019-01-04T16:21:10.952Z,5.04
2019-01-04T16:23:41.073Z,5.04
2019-01-04T16:26:11.220Z,5.06
2019-01-04T16:28:42.281Z,5.04
2019-01-04T16:31:12.420Z,5.02
2019-01-04T16:33:42.772Z,4.99
2019-01-04T16:36:13.002Z,5.04
2019-01-04T16:38:43.341Z,4.99
2019-01-04T16:41:13.531Z,4.99
2019-01-04T16:43:43.636Z,5.06
2019-01-04T16:46:14.037Z,5.05
2019-01-04T16:48:44.247Z,5.08
2019-01-04T16:51:15.473Z,5.09
2019-01-04T16:53:45.580Z,5.04
2019-01-04T16:56:15.701Z,5.06
2019-01-04T16:58:45.809Z,5.05
2019-01-04T17:01:15.934Z,5.03
2019-01-04T17:03:47.618Z,5.04
2019-01-04T17:06:17.771Z,4.98
2019-01-04T17:08:47.886Z,4.93
2019-01-04T17:11:18.092Z,4.87
2019-01-04T17:13:48.196Z,4.79
2019-01-04T17:16:18.391Z,4.83
2019-01-04T17:18:48.497Z,4.83
2019-01-04T17:21:18.911Z,4.78
2019-01-04T17:23:49.029Z,4.75
2019-01-04T17:26:19.457Z,4.66
2019-01-04T17:28:49.554Z,4.74
2019-01-04T17:31:19.693Z,4.70
2019-01-04T17:33:50.763Z,4.71
2019-01-04T17:36:21.972Z,4.76
2019-01-04T17:38:52.086Z,4.66
2019-01-04T17:41:22.237Z,4.71
2019-01-04T17:43:52.366Z,4.78
2019-01-04T17:46:22.530Z,4.78
2019-01-04T17:48:52.638Z,4.84
2019-01-04T17:51:22.762Z,4.85
2019-01-04T17:53:52.869Z,4.79
2019-01-04T17:56:23.324Z,4.77
2019-01-04T17:58:53.658Z,4.80
2019-01-04T18:01:23.789Z,4.74
2019-01-04T18:03:54.033Z,4.75
2019-01-04T18:06:24.179Z,4.82
2019-01-04T18:08:54.318Z,4.84
2019-01-04T18:11:24.786Z,4.94
2019-01-04T18:13:54.925Z,4.97
2019-01-04T18:16:25.129Z,5.02
2019-01-04T18:18:55.452Z,5.02
2019-01-04T18:21:25.582Z,5.07
2019-01-04T18:23:55.805Z,5.10
2019-01-04T18:26:25.943Z,5.10
2019-01-04T18:28:56.986Z,5.11
2019-01-04T18:31:27.165Z,5.13
2019-01-04T18:33:57.302Z,5.18
2019-01-04T18:36:27.575Z,5.24
2019-01-04T18:38:57.743Z,5.25
2019-01-04T18:41:28.951Z,4.79
2019-01-04T18:43:59.114Z,5.29
2019-01-04T18:46:29.407Z,5.33
2019-01-04T18:48:59.605Z,5.33
2019-01-04T18:51:29.734Z,5.33
2019-01-04T18:53:59.867Z,5.33
2019-01-04T18:56:30.006Z,5.36
2019-01-04T18:59:00.132Z,5.41
2019-01-04T19:01:30.279Z,5.39
2019-01-04T19:04:01.041Z,5.43
2019-01-04T19:06:31.340Z,5.42
2019-01-04T19:09:01.495Z,5.45
2019-01-04T19:11:33.244Z,5.50
2019-01-04T19:14:03.385Z,5.54
2019-01-04T19:16:33.596Z,5.58
2019-01-04T19:19:03.921Z,5.59
2019-01-04T19:21:34.149Z,5.62
2019-01-04T19:24:04.302Z,5.66
2019-01-04T19:26:34.462Z,5.66
2019-01-04T19:29:04.590Z,5.68
2019-01-04T19:31:34.735Z,5.72
2019-01-04T19:34:04.902Z,5.73
2019-01-04T19:36:35.047Z,5.75
2019-01-04T19:39:07.648Z,5.84
2019-01-04T19:41:37.785Z,5.90
2019-01-04T19:44:07.932Z,5.86
2019-01-04T19:46:38.194Z,5.86
2019-01-04T19:49:08.297Z,5.94
2019-01-04T19:51:38.617Z,6.00
2019-01-04T19:54:10.109Z,6.07
2019-01-04T19:56:40.267Z,6.07
2019-01-04T19:59:10.406Z,6.11
2019-01-04T20:01:41.016Z,6.19
2019-01-04T20:04:11.135Z,6.27
2019-01-04T20:07:33.131Z,6.28
2019-01-04T20:11:17.660Z,6.30
2019-01-04T20:14:35.124Z,6.26
2019-01-04T20:17:33.243Z,6.29
2019-01-04T20:20:20.996Z,6.39
2019-01-04T20:23:15.874Z,6.39
2019-01-04T20:26:02.137Z,6.38
2019-01-04T20:28:50.187Z,6.35
2019-01-04T20:31:39.310Z,6.36
2019-01-04T20:34:39.251Z,6.36
2019-01-04T20:37:26.978Z,6.37
2019-01-04T20:40:14.843Z,6.39
2019-01-04T20:43:03.937Z,6.36
2019-01-04T20:45:56.580Z,6.43
2019-01-04T20:48:45.675Z,6.47
2019-01-04T20:51:43.578Z,6.52
2019-01-04T20:54:38.670Z,6.53
2019-01-04T20:57:28.497Z,6.54
2019-01-04T21:00:30.318Z,6.53
2019-01-04T21:03:31.525Z,6.57
2019-01-04T21:06:23.528Z,6.54
2019-01-04T21:09:11.306Z,6.57
2019-01-04T21:11:59.442Z,6.59
2019-01-04T21:14:47.228Z,6.53
2019-01-04T21:17:45.684Z,6.55
2019-01-04T21:20:34.764Z,6.45
2019-01-04T21:23:17.541Z,6.48
2019-01-04T21:26:06.497Z,6.51
2019-01-04T21:29:13.841Z,6.51
2019-01-04T21:32:02.906Z,6.52
2019-01-04T21:34:54.911Z,6.54
2019-01-04T21:37:49.779Z,6.54
2019-01-04T21:40:54.320Z,6.56
2019-01-04T21:43:49.639Z,6.55
2019-01-04T21:46:48.517Z,6.57
2019-01-04T21:49:43.495Z,6.52
2019-01-04T21:52:42.919Z,6.54
2019-01-04T21:55:33.299Z,6.48
2019-01-04T21:58:25.422Z,6.52
2019-01-04T22:01:17.904Z,6.49
2019-01-04T22:04:05.814Z,6.44
2019-01-04T22:06:53.552Z,6.38
2019-01-04T22:09:42.758Z,6.38
2019-01-04T22:12:25.277Z,6.38
2019-01-04T22:15:17.423Z,6.38
2019-01-04T22:18:05.408Z,6.37
2019-01-04T22:21:00.709Z,6.36
2019-01-04T22:23:48.592Z,6.36
2019-01-04T22:26:36.272Z,6.38
2019-01-04T22:29:34.445Z,6.37
2019-01-04T22:32:26.099Z,6.45
2019-01-04T22:35:24.361Z,6.45
2019-01-04T22:38:12.389Z,6.53
2019-01-04T22:41:08.011Z,6.57
2019-01-04T22:44:00.162Z,6.58
2019-01-04T22:46:53.373Z,6.64
2019-01-04T22:49:37.288Z,6.58
2019-01-04T22:52:35.850Z,6.60
2019-01-04T22:55:27.581Z,6.61
2019-01-04T22:58:09.345Z,6.56
2019-01-04T23:00:58.914Z,6.62
2019-01-04T23:03:49.272Z,6.62
2019-01-04T23:06:50.001Z,6.50
2019-01-04T23:09:37.926Z,6.43
2019-01-04T23:12:24.414Z,6.35
2019-01-04T23:15:20.018Z,6.37
2019-01-04T23:18:27.961Z,6.29
2019-01-04T23:21:52.805Z,6.30
2019-01-04T23:24:40.262Z,6.21
2019-01-04T23:27:28.161Z,6.21
2019-01-04T23:30:20.217Z,6.20
2019-01-04T23:33:08.093Z,6.17
2019-01-04T23:36:03.281Z,6.19
2019-01-04T23:38:52.212Z,6.10
2019-01-04T23:41:44.477Z,6.23
2019-01-04T23:44:33.539Z,6.23
2019-01-04T23:47:22.739Z,6.23
2019-01-04T23:50:13.889Z,6.17
2019-01-04T23:53:08.797Z,6.05
2019-01-04T23:55:56.721Z,5.93
2019-01-04T23:58:43.560Z,5.68
